Wenn Sie den Mauscursor in der Übersichtskarte über ein Stationssymbol ziehen, so werden die aktuellen Stationsdaten eingeblendet. Neben dem Stationsnamen wird der Zeitpunkt in MEZ eingeblendet, bis zu dem aktuelle Daten verfügbar sind. Zunächst wird die aktuelle Niederschlagsumme für das letzte Messintervall angegeben (15 Minuten). Dadurch wird ersichtlich, ob und in welcher Intensität es regnet. Danach wird die Niederschlagsumme für die vergangenen 24 Stunden angegeben. Der aktuelle Lufttemperaturwert rundet die Information zum Mouse - Over ab.   

Durch Anklicken des entsprechenden Stationssymbols gelangen Sie zu den Gangliniendarstellung der Niederschlagshöhe, der Lufttemperatur und (sofern vorhanden) auch der Luftfeuchte. Jeder Parameter ist für einen Zeitraum für 30 Tage dargestellt. 

Wo verfügbar, stellen wir die Niederschlagsverhältnisse des aktuellen Kalenderjahres und des Vorjahres den langjährigen Vergleichsreihen grafisch auf 2 Arten gegenüber.

Eine Grafik wird in Form von Summenlinien erstellt. In dieser wird die Niederschlagssumme für das aktuelle Kalenderjahr und jenes davor ab Jahresbeginn tageweise aufsummiert und so den Vergleichszeitreihen (ebenso als minimale, mittlere und maximale Summenlinien dargestellt) gegenübergestellt.

In einer anderen Grafik vergleichen wir die Niederschlags - Monatssummen des aktuellen Kalenderjahres und des Vorjahres mit den langjährigen Vergleichsreihen. Dabei stellen wir für die Vergleichszeitreihen das langjährige Mittel, das Maximum und das Minimum für jedes Monat dar.

Zudem können Sie die Daten für Messstationen des Hydrographischen Dienstes für die letzten 30 Tage downloaden.

Bei Stationen die von der Geosphere Austria betrieben werden, gibt es keine Downloadmöglichkeit.

Die  Stationssymbole auf der Übersichtskarte werden entsprechend der Niederschlagshöhe in den letzten 24 Stunden vor dem angegebenen Zeitpunkt bei der jeweiligen Station eingefärbt (siehe dazu Legende neben der Übersichtskarte).

Abschließend haben wir für Sie eine Übersichtstabelle unterhalb der Übersichtskarte angefügt. Hier werden die Niederschlagsstationen des Burgenlandes alphabetisch aufgelistet die aktuellen Messwerte dargestellt und es besteht die Möglichkeit der Navigation zu den bereits beschriebenen grafischen Darstellungen.

Stationsname Zeit [MEZ] NS [mm/15min] NS [mm/24h] Temp [°C] Luftfeuchte [%]
Andau 21.06.2024 15:30 0,0 0,0 31,2
Apetlon - A79 21.06.2024 15:30 0,0 0,0 30,4 100,0
Aspang 21.06.2024 15:30 0,0 0,0 27,4
Bad Tatzmannsdorf 21.06.2024 15:30 0,0 0,0 30,4
Bernstein 21.06.2024 15:30 0,0 0,0 27,8
Bonisdorf 21.06.2024 15:30 0,0 0,0 29,2 80,0
Bruckneudorf 21.06.2024 15:30 0,0 0,0 30,9
Deutsch Jahrndorf 21.06.2024 15:30 0,0 0,0 31,1 74,0
Deutsch Kaltenbrunn 21.06.2024 15:30 0,0 0,0 29,9 62,5
Deutschkreutz 21.06.2024 15:30 0,0 0,0 31,6 71,0
Donnerskirchen 21.06.2024 15:30 0,0 0,0 30,4 70,0
Drassburg 21.06.2024 15:30 0,0 0,0 29,7 74,0
Dürnbach 21.06.2024 15:30 0,0 0,0 30,4 74,0
Eisenberg 21.06.2024 15:30 0,0 0,0 30,9 65,0
Eisenstadt 21.06.2024 15:30 0,0 0,0 29,7 83,0
Feldbach 21.06.2024 15:30 0,0 0,0 30,6
Fischbach 21.06.2024 15:30 0,0 0,0 24,6
Frankenau 21.06.2024 15:30 0,0 0,0 30,9 81,0
Frauenkirchen 21.06.2024 15:30 0,0 0,0 31,3 75,0
Fürstenfeld 21.06.2024 15:30 0,0 0,0 31,2
Gattendorf 21.06.2024 15:30 0,0 0,0 32,3 66,0
Glasing 21.06.2024 15:30 0,0 0,0 30,9 65,2
Gleisdorf 21.06.2024 15:30 0,0 0,0 29,7
Halbturn 21.06.2024 15:30 0,0 0,0 31,8 71,0
Heiligenkreuz 21.06.2024 15:30 0,0 0,0 30,7 66,0
Hirschenkogel 21.06.2024 15:30 0,0 0,1 29,7
Hirschenstein 21.06.2024 15:30 0,0 0,0 27,1 100,0
Illmitz - Biologische Station 21.06.2024 15:30 0,0 0,0 30,2 67,0
Karl 21.06.2024 15:30 0,0 0,0 29,5 83,0
Kleinzicken 21.06.2024 15:30 0,0 0,0 29,5
Kobersdorf 21.06.2024 15:30 0,0 0,0 30,9 72,0
Lutzmannsburg (GSA) 21.06.2024 15:30 0,0 0,0 30,7
Mattersburg 21.06.2024 15:30 0,0 0,0 28,3
Moenichkirchen 21.06.2024 15:30 0,0 0,0 23,4
Nebersdorf 21.06.2024 15:30 0,0 0,0 31,5 72,0
Neumarkt an der Raab 21.06.2024 15:30 0,0 0,0 31,9 76,0
Neusiedl am See 21.06.2024 15:30 0,0 0,0 30,7
Neustift an der Rosalia 21.06.2024 15:30 0,0 0,0 26,9 82,0
Nickelsdorf 21.06.2024 15:30 0,0 0,0 30,8 79,0
Nikitsch 21.06.2024 15:30 0,0 0,0 30,5 77,0
Oberpullendorf 21.06.2024 15:30 0,0 0,0 31,0 64,0
Oberwart 21.06.2024 15:30 0,0 0,0 30,7 69,0
Pinkafeld 21.06.2024 15:30 0,0 0,0 30,2 90,0
Pottschach 21.06.2024 15:30 0,0 0,0 29,2
Puchberg 21.06.2024 15:30 0,0 0,3 28,4
Redlschlag 21.06.2024 15:30 0,0 0,0 26,0 74,7
Ritzing 21.06.2024 15:30 0,0 0,0 30,4 88,0
Rust 21.06.2024 15:30 0,0 0,0 30,6 76,0
Seibersdorf 21.06.2024 15:30 0,0 0,0
Sieggraben 21.06.2024 15:30 0,0 0,0 28,0 79,0
St. Margarethen - Berg 21.06.2024 15:30 0,0 0,0 29,6 84,0
St. Michael 21.06.2024 15:30 0,0 0,0 31,7 77,0
Stadtschlaining 21.06.2024 15:30 0,0 0,0 29,8 78,0
Trausdorf 21.06.2024 15:30 0,0 0,0 29,6 84,0
Wiener Neustadt 21.06.2024 15:30 0,0 0,0 29,5
Woerterberg 21.06.2024 15:30 0,0 0,0 29,3
Wulkaprodersdorf 21.06.2024 15:30 0,0 0,0 30,2 76,0
Zurndorf - Friedrichshof 21.06.2024 15:30 0,0 0,0 30,4 80,0